createdAt,value
2018-03-11T19:03:53.334Z,89.30
2018-03-11T19:06:20.914Z,89.40
2018-03-11T19:11:00.418Z,89.20
2018-03-11T19:13:28.387Z,90.00
2018-03-11T19:15:56.341Z,90.10
2018-03-11T19:18:23.753Z,90.10
2018-03-11T19:20:51.317Z,90.50
2018-03-11T19:23:18.883Z,90.60
2018-03-11T19:25:46.444Z,90.70
2018-03-11T19:28:15.142Z,90.80
2018-03-11T19:30:42.689Z,90.90
2018-03-11T19:33:10.259Z,90.80
2018-03-11T19:35:37.867Z,90.70
2018-03-11T19:38:05.823Z,90.60
2018-03-11T19:40:33.792Z,90.60
2018-03-11T19:43:02.258Z,90.60
2018-03-11T19:45:29.813Z,90.50
2018-03-11T19:47:57.409Z,90.50
2018-03-11T19:50:26.971Z,90.40
2018-03-11T19:52:54.542Z,90.40
2018-03-11T19:55:22.135Z,89.90
2018-03-11T19:57:50.128Z,89.10
2018-03-11T20:00:17.693Z,89.10
2018-03-11T20:02:46.108Z,88.80
2018-03-11T20:05:13.701Z,89.10
2018-03-11T20:07:41.669Z,89.80
2018-03-11T20:10:09.655Z,90.00
2018-03-11T20:12:37.219Z,90.00
2018-03-11T20:15:04.865Z,90.10
2018-03-11T20:17:32.854Z,90.30
2018-03-11T20:20:00.422Z,90.30
2018-03-11T20:22:27.983Z,90.30
2018-03-11T20:24:55.564Z,90.40
2018-03-11T20:27:23.157Z,90.30
2018-03-11T20:29:50.774Z,90.30
2018-03-11T20:32:18.385Z,90.20
2018-03-11T20:34:45.936Z,90.20
2018-03-11T20:37:13.506Z,90.20
2018-03-11T20:39:41.468Z,90.30
2018-03-11T20:42:09.038Z,90.30
2018-03-11T20:44:37.039Z,90.10
2018-03-11T20:47:04.625Z,90.10
2018-03-11T20:49:32.219Z,90.00
2018-03-11T20:51:59.783Z,89.90
2018-03-11T20:54:27.375Z,89.80
2018-03-11T20:56:54.971Z,89.50
2018-03-11T20:59:22.548Z,89.70
2018-03-11T21:01:50.116Z,89.80
2018-03-11T21:04:17.679Z,89.50
2018-03-11T21:06:45.254Z,89.30
2018-03-11T21:09:11.708Z,89.20
2018-03-11T21:11:38.183Z,89.50
2018-03-11T21:14:04.277Z,89.50
2018-03-11T21:16:30.355Z,89.80
2018-03-11T21:18:56.454Z,89.90
2018-03-11T21:21:22.579Z,90.00
2018-03-11T21:23:48.671Z,90.00
2018-03-11T21:26:15.116Z,90.00
2018-03-11T21:28:41.209Z,90.00
2018-03-11T21:31:07.305Z,90.00
2018-03-11T21:33:33.535Z,89.90
2018-03-11T21:35:59.608Z,89.90
2018-03-11T21:38:25.710Z,90.10
2018-03-11T21:40:52.171Z,89.90
2018-03-11T21:43:18.269Z,89.90
2018-03-11T21:45:44.521Z,90.10
2018-03-11T21:48:10.601Z,90.70
2018-03-11T21:50:36.669Z,90.90
2018-03-11T21:53:03.125Z,91.30
2018-03-11T21:55:29.208Z,91.30
2018-03-11T21:57:55.295Z,91.30
2018-03-11T22:00:21.379Z,91.40
2018-03-11T22:02:47.845Z,91.50
2018-03-11T22:05:13.921Z,91.50
2018-03-11T22:07:40.386Z,91.50
2018-03-11T22:10:06.459Z,91.50
2018-03-11T22:12:32.523Z,91.60
2018-03-11T22:14:58.627Z,91.30
2018-03-11T22:17:24.845Z,90.90
2018-03-11T22:19:50.950Z,90.80
2018-03-11T22:22:17.180Z,90.40
2018-03-11T22:24:43.263Z,90.40
2018-03-11T22:27:09.327Z,90.30
2018-03-11T22:29:35.996Z,90.20
2018-03-11T22:32:02.075Z,90.10
2018-03-11T22:34:28.164Z,89.90
2018-03-11T22:36:54.297Z,89.80
2018-03-11T22:39:20.361Z,89.70
2018-03-11T22:44:53.664Z,89.40
2018-03-11T22:47:19.757Z,89.40
2018-03-11T22:49:46.216Z,89.30
2018-03-11T22:52:12.317Z,89.30
2018-03-11T22:54:38.800Z,89.80
2018-03-11T22:57:05.038Z,89.80
2018-03-11T22:59:31.131Z,89.80
2018-03-11T23:01:57.241Z,89.70
2018-03-11T23:04:23.730Z,89.40
2018-03-11T23:06:49.813Z,89.40
2018-03-11T23:12:23.573Z,89.10
2018-03-11T23:14:49.654Z,89.10
2018-03-11T23:17:15.771Z,90.10
2018-03-11T23:19:41.854Z,90.10
2018-03-11T23:22:08.034Z,90.10
2018-03-11T23:24:34.466Z,89.90
2018-03-11T23:27:00.929Z,89.70
2018-03-11T23:29:27.018Z,89.70
2018-03-11T23:31:53.091Z,89.50
2018-03-11T23:34:19.215Z,89.70
2018-03-11T23:36:45.314Z,89.70
2018-03-11T23:39:11.409Z,89.70
2018-03-11T23:41:37.850Z,89.70
2018-03-11T23:44:04.297Z,89.50
2018-03-11T23:46:30.718Z,89.40
2018-03-11T23:48:57.146Z,89.70
2018-03-11T23:51:23.593Z,89.70
2018-03-11T23:53:50.024Z,90.00
2018-03-11T23:56:16.591Z,90.00
2018-03-11T23:58:42.656Z,90.00
